• Join FlightAware (Why Join?)
  • Login
  • US Flag 
05:27AM EDT


 

Airport Tracker/Info


-or-


 

Live Flight TrackerFlight Track Log ✈ SKW5641 ✈ 02-May-2013 ✈ KBUR - KDEN

Flight Track Log - Related Links

Times and Time Zones

All times are in EDT time to prevent confusion due to time zone crossing. See the SKW5641 flight status page for this flight to view local times or setup timezone preferences in your user account.

Time Position Orientation Groundspeed Altitude Reporting Facility
EDT Latitude Longitude Course Direction KTS MPH feet Rate Location/Type
06:29PM 34.1794 -118.3569 54° Northeast 167 192 1,600  Level Los Angeles Center
06:30PM 34.1647 -118.4106 252° West 205 236 3,500 1,860 Climbing Los Angeles Center
06:31PM 34.2217 -118.4406 336° Northwest 224 258 5,500 1,800 Climbing Los Angeles Center
06:32PM 34.2936 -118.4544 351° North 266 306 7,300 1,980 Climbing Los Angeles Center
06:33PM 34.4025 -118.4116 59° Northeast  Level FlightAware Approximate
06:33PM 34.3717 -118.4594 357° North 281 323 9,700  Level Los Angeles Center
06:34PM 34.4650 -118.2942 51° Northeast  Level FlightAware Approximate
06:35PM 34.5381 -118.1866 54° Northeast  Level FlightAware Approximate
06:35PM 34.4372 -118.3733 47° Northeast 292 336 11,800  Level Los Angeles Center
06:36PM 34.4897 -118.2917 52° Northeast 308 354 13,100 1,260 Climbing Los Angeles Center
06:37PM 34.5450 -118.2031 53° Northeast 327 376 14,500 1,320 Climbing Los Angeles Center
06:38PM 34.5769 -118.0811 72° East 347 399 15,900 1,320 Climbing Los Angeles Center
06:39PM 34.6078 -117.9678 72° East 355 409 17,300 1,140 Climbing Los Angeles Center
06:40PM 34.6375 -117.8514 73° East 361 415 18,300 1,020 Climbing Los Angeles Center
06:41PM 34.6689 -117.7322 72° East 369 425 19,500 1,080 Climbing Los Angeles Center
06:42PM 34.6989 -117.6114 73° East 375 432 20,600 1,020 Climbing Los Angeles Center
06:43PM 34.7372 -117.4631 73° East 385 443 21,700 840 Climbing Los Angeles Center
06:44PM 34.7633 -117.3625 72° East 392 451 22,400 780 Climbing Los Angeles Center
06:45PM 34.8028 -117.2097 73° East 397 457 23,400 840 Climbing Los Angeles Center
06:46PM 34.8350 -117.0800 73° East 402 463 24,200 720 Climbing Los Angeles Center
06:47PM 34.8683 -116.9492 73° East 407 468 25,000 660 Climbing Los Angeles Center
06:48PM 34.9506 -116.8222 52° Northeast 399 459 25,800 600 Climbing Los Angeles Center
06:49PM 35.0389 -116.6956 50° Northeast 408 470 26,500 540 Climbing Los Angeles Center
06:50PM 35.1125 -116.5872 50° Northeast 413 475 27,000 540 Climbing Los Angeles Center
06:51PM 35.1883 -116.4778 50° Northeast 421 484 27,700 480 Climbing Los Angeles Center
06:52PM 35.2656 -116.3692 49° Northeast 423 487 28,100 480 Climbing Los Angeles Center
06:53PM 35.3561 -116.2364 50° Northeast 425 489 28,700 480 Climbing Los Angeles Center
06:54PM 35.4161 -116.1453 51° Northeast 429 494 29,100 360 Climbing Los Angeles Center
06:56PM 35.5097 -116.0117 49° Northeast 432 497 29,600 420 Climbing Los Angeles Center
06:57PM 35.6050 -115.8711 50° Northeast 434 499 30,100 480 Climbing Los Angeles Center
06:58PM 35.6819 -115.7561 51° Northeast 436 502 30,700 480 Climbing Los Angeles Center
06:59PM 35.7731 -115.6200 50° Northeast 433 498 31,100 360 Climbing Los Angeles Center
07:00PM 35.8503 -115.5053 50° Northeast 437 503 31,500 420 Climbing Los Angeles Center
07:01PM 35.9256 -115.3936 50° Northeast 430 495 32,000 480 Climbing Los Angeles Center
07:02PM 36.0003 -115.2811 51° Northeast 429 494 32,600 360 Climbing Los Angeles Center
07:03PM 36.0728 -115.1667 52° Northeast 427 491 32,800 180 Climbing Los Angeles Center
07:04PM 36.1336 -115.0033 65° Northeast 436 502 33,000 60 Climbing Los Angeles Center
07:06PM 36.2325 -114.7225 66° East 450 518 33,000  Level Los Angeles Center
07:07PM 36.2836 -114.5783 66° East 456 525 33,000  Level Los Angeles Center
07:08PM 36.3342 -114.4350 66° East 455 524 33,000  Level Los Angeles Center
07:09PM 36.4033 -114.2336 67° East 454 522 33,000  Level Los Angeles Center
07:10PM 36.4536 -114.0897 66° East 455 524 33,000  Level Los Angeles Center
07:11PM 36.5028 -113.9467 67° East 451 519 33,000  Level Los Angeles Center
07:12PM 36.5506 -113.8058 67° East 454 522 33,000  Level Los Angeles Center
07:13PM 36.5994 -113.6628 67° East 452 520 33,000  Level Los Angeles Center
07:14PM 36.6578 -113.4908 67° East 451 519 33,000  Level Los Angeles Center
07:16PM 36.7058 -113.3472 67° East 451 519 33,000  Level Los Angeles Center
07:17PM 36.7533 -113.2033 68° East 451 519 33,000  Level Los Angeles Center
07:18PM 36.8003 -113.0603 68° East 450 518 33,000  Level Los Angeles Center
07:19PM 36.8483 -112.9175 67° East 449 517 33,000  Level Los Angeles Center
07:20PM 36.9047 -112.7458 68° East 449 517 33,000  Level Los Angeles Center
07:21PM 36.9522 -112.6031 67° East 449 517 33,000  Level Los Angeles Center
07:22PM 37.0278 -112.3728 68° East 452 520 33,000  Level Denver Center
07:23PM 37.0464 -112.3144 68° East 451 519 33,000  Level Los Angeles Center
07:24PM 37.1222 -112.0836 68° East 452 520 33,000  Level Denver Center
07:25PM 37.1583 -111.9675 69° East 452 520 33,000  Level Los Angeles Center
07:26PM 37.2036 -111.8239 68° East 448 516 33,000  Level Los Angeles Center
07:26PM 37.2253 -111.7650 65° Northeast 451 519 33,000  Level Denver Center
07:27PM 37.2675 -111.6222 70° East 444 511 33,000  Level Denver Center
07:29PM 37.3133 -111.4772 68° East 450 518 33,000  Level Denver Center
07:30PM 37.3675 -111.3025 69° East 450 518 33,000  Level Denver Center
07:31PM 37.4136 -111.1567 68° East 451 519 33,000  Level Denver Center
07:32PM 37.4683 -110.9819 68° East 451 519 33,000  Level Denver Center
07:33PM 37.5128 -110.8367 69° East 447 514 33,000  Level Denver Center
07:34PM 37.5581 -110.6892 69° East 453 521 33,000  Level Denver Center
07:35PM 37.6028 -110.5422 69° East 451 519 33,000  Level Denver Center
07:36PM 37.6542 -110.3736 69° East 452 520 33,000  Level Denver Center
07:37PM 37.6969 -110.2322 69° East 451 519 33,000  Level Denver Center
07:38PM 37.7467 -110.0672 69° East 450 518 33,000  Level Denver Center
07:39PM 37.7881 -109.9275 69° East 446 513 33,000  Level Denver Center
07:40PM 37.8369 -109.7625 69° East 447 514 33,000  Level Denver Center
07:41PM 37.8778 -109.6206 70° East 448 516 33,000  Level Denver Center
07:42PM 37.9200 -109.4814 69° East 444 511 33,000  Level Denver Center
07:43PM 37.9675 -109.3158 70° East 447 514 33,000  Level Denver Center
07:44PM 38.0075 -109.1756 70° East 443 510 33,000  Level Denver Center
07:45PM 38.0542 -109.0136 70° East 445 512 33,000  Level Denver Center
07:46PM 38.0942 -108.8700 70° East 449 517 33,000  Level Denver Center
07:47PM 38.1408 -108.7075 70° East 442 509 33,000  Level Denver Center
07:48PM 38.1739 -108.5917 70° East 438 504 33,000  Level Denver Center
07:49PM 38.2258 -108.4067 70° East 438 504 33,000  Level Denver Center
07:50PM 38.2653 -108.2703 70° East 432 497 33,000  Level Denver Center
07:51PM 38.3100 -108.1078 71° East 435 501 33,000  Level Denver Center
07:53PM 38.3492 -107.9717 70° East 432 497 33,000  Level Denver Center
07:54PM 38.3928 -107.8103 71° East 431 496 33,000  Level Denver Center
07:55PM 38.4303 -107.6733 71° East 431 496 33,000  Level Denver Center
07:56PM 38.4853 -107.5217 65° Northeast 422 486 33,000  Level Denver Center
07:57PM 38.5408 -107.3992 60° Northeast 418 481 33,000  Level Denver Center
07:58PM 38.6036 -107.2556 61° Northeast 416 479 33,000  Level Denver Center
07:59PM 38.6603 -107.1294 60° Northeast 417 480 33,000  Level Denver Center
08:00PM 38.7067 -107.0264 60° Northeast 417 480 33,000  Level Denver Center
08:01PM 38.7744 -106.8711 61° Northeast 418 481 33,000  Level Denver Center
08:02PM 38.8314 -106.7422 60° Northeast 418 481 33,000 -420 Level Denver Center
08:03PM 38.8969 -106.5956 60° Northeast 420 483 32,200 -1,080 Descending Denver Center
08:04PM 38.9681 -106.4422 59° Northeast 444 511 30,800 -1,200 Descending Denver Center
08:05PM 39.0278 -106.3108 60° Northeast 446 513 29,700 -1,200 Descending Denver Center
08:06PM 39.0967 -106.1611 59° Northeast 438 504 28,400 -1,080 Descending Denver Center
08:07PM 39.1536 -106.0322 60° Northeast 412 474 27,600 -1,320 Descending Denver Center
08:08PM 39.2069 -105.9108 60° Northeast 389 448 25,700 -1,800 Descending Denver Center
08:09PM 39.2583 -105.7933 61° Northeast 376 433 23,900 -1,800 Descending Denver Center
08:10PM 39.3081 -105.6811 60° Northeast 360 414 22,100 -1,860 Descending Denver Center
08:11PM 39.3553 -105.5742 60° Northeast 344 396 20,100 -1,740 Descending Denver Center
08:12PM 39.3983 -105.4653 63° Northeast 313 360 18,600 -1,200 Descending Denver Center
08:13PM 39.4011 -105.3550 88° East 298 343 17,700 -960 Descending Denver Center
08:14PM 39.4056 -105.2411 87° East 297 342 16,700 -1,080 Descending Denver Center
08:15PM 39.4097 -105.1494 87° East 262 302 15,500 -1,260 Descending Denver Center
08:16PM 39.4142 -105.0561 86° East 245 282 14,200 -1,080 Descending Denver Center
08:17PM 39.4186 -104.9631 86° East 259 298 13,300 -1,020 Descending Denver Center
08:18PM 39.4325 -104.8628 80° East 270 311 12,200 -1,080 Descending Denver Center
08:19PM 39.4714 -104.7900 55° Northeast 248 285 11,100 -840 Descending Denver Center
08:20PM 39.5139 -104.7231 51° Northeast 241 277 10,500 -660 Descending Denver Center
08:21PM 39.5744 -104.6767 31° Northeast 235 270 9,800 -720 Descending Denver Center
08:23PM 39.6369 -104.6636 North 229 264 9,100 -780 Descending Denver Center
08:24PM 39.7033 -104.6622 North 221 254 8,200 -1,080 Descending Denver Center
08:25PM 39.7528 -104.6619 360° North 183 211 7,000 -1,080 Descending Denver Center
08:26PM 39.7989 -104.6611 North 154 177 6,000 -1,020 Descending Denver Center